createdAt,value
2017-07-15T00:00:08.593Z,102135.16
2017-07-15T00:02:36.530Z,102139.63
2017-07-15T00:05:04.485Z,102140.49
2017-07-15T00:07:32.413Z,102137.41
2017-07-15T00:10:00.336Z,102137.41
2017-07-15T00:12:28.259Z,102151.24
2017-07-15T00:14:56.188Z,102155.31
2017-07-15T00:17:24.130Z,102154.91
2017-07-15T00:19:52.054Z,102148.20
2017-07-15T00:22:19.970Z,102149.54
2017-07-15T00:24:47.888Z,102144.20
2017-07-15T00:27:15.815Z,102152.70
2017-07-15T00:29:43.756Z,102148.67
2017-07-15T00:32:11.707Z,102153.61
2017-07-15T00:34:39.649Z,102152.70
2017-07-15T00:37:07.674Z,102155.82
2017-07-15T00:39:35.599Z,102146.93
2017-07-15T00:42:03.533Z,102147.41
2017-07-15T00:44:31.454Z,102143.81
2017-07-15T00:46:59.369Z,102148.70
2017-07-15T00:49:27.307Z,102147.41
2017-07-15T00:51:55.222Z,102145.63
2017-07-15T00:54:23.149Z,102142.03
2017-07-15T00:56:51.082Z,102142.94
2017-07-15T00:59:19.019Z,102148.27
2017-07-15T01:01:46.978Z,102140.69
2017-07-15T01:04:14.910Z,102141.16
2017-07-15T01:06:42.854Z,102142.98
2017-07-15T01:09:10.785Z,102147.88
2017-07-15T01:11:38.715Z,102138.95
2017-07-15T01:14:06.672Z,102146.58
2017-07-15T01:16:34.597Z,102140.30
2017-07-15T01:19:02.537Z,102141.63
2017-07-15T01:21:30.470Z,102150.61
2017-07-15T01:23:58.404Z,102152.86
2017-07-15T01:26:26.351Z,102153.33
2017-07-15T01:28:54.277Z,102153.37
2017-07-15T01:31:22.189Z,102162.30
2017-07-15T01:33:50.104Z,102148.43
2017-07-15T01:36:18.035Z,102146.22
2017-07-15T01:38:45.989Z,102147.16
2017-07-15T01:41:13.931Z,102148.50
2017-07-15T01:43:41.857Z,102148.07
2017-07-15T01:46:09.800Z,102155.22
2017-07-15T01:48:37.729Z,102145.81
2017-07-15T01:51:05.705Z,102145.81
2017-07-15T01:53:33.612Z,102144.52
2017-07-15T01:56:01.539Z,102148.11
2017-07-15T01:58:29.491Z,102148.62
2017-07-15T02:00:57.410Z,102147.67
2017-07-15T02:03:25.357Z,102159.33
2017-07-15T02:05:53.329Z,102155.81
2017-07-15T02:08:21.265Z,102148.62
2017-07-15T02:10:49.194Z,102146.88
2017-07-15T02:13:17.121Z,102153.99
2017-07-15T02:15:45.061Z,102150.83
2017-07-15T02:18:12.996Z,102146.52
2017-07-15T02:20:40.914Z,102148.73
2017-07-15T02:23:08.829Z,102152.77
2017-07-15T02:25:36.758Z,102158.61
2017-07-15T02:28:04.706Z,102159.48
2017-07-15T02:30:32.681Z,102152.36
2017-07-15T02:33:00.597Z,102154.11
2017-07-15T02:35:28.513Z,102157.78
2017-07-15T02:37:56.416Z,102167.61
2017-07-15T02:40:24.353Z,102163.62
2017-07-15T02:42:52.274Z,102165.00
2017-07-15T02:45:20.199Z,102165.00
2017-07-15T02:47:48.220Z,102163.66
2017-07-15T02:50:16.150Z,102170.84
2017-07-15T02:52:44.146Z,102173.10
2017-07-15T02:55:12.079Z,102162.43
2017-07-15T02:57:40.025Z,102163.34
2017-07-15T03:00:07.966Z,102165.55
2017-07-15T03:02:35.888Z,102166.50
2017-07-15T03:05:03.850Z,102161.59
2017-07-15T03:07:31.789Z,102171.00
2017-07-15T03:09:59.712Z,102177.28
2017-07-15T03:12:27.640Z,102184.91
2017-07-15T03:14:55.558Z,102186.28
2017-07-15T03:17:23.523Z,102192.13
2017-07-15T03:19:51.462Z,102187.16
2017-07-15T03:22:19.398Z,102187.23
2017-07-15T03:24:47.329Z,102196.63
2017-07-15T03:27:27.763Z,102197.98
2017-07-15T03:29:55.705Z,102192.20
2017-07-15T03:32:23.653Z,102193.55
2017-07-15T03:34:51.594Z,102197.11
2017-07-15T03:37:19.512Z,102201.17
2017-07-15T03:39:47.437Z,102202.91
2017-07-15T03:42:15.374Z,102202.91
2017-07-15T03:44:43.594Z,102210.10
2017-07-15T03:47:11.598Z,102215.04
2017-07-15T03:49:39.511Z,102208.83
2017-07-15T03:52:07.451Z,102219.98
2017-07-15T03:54:35.417Z,102214.56
2017-07-15T03:57:03.349Z,102216.86
2017-07-15T03:59:31.281Z,102222.27
2017-07-15T04:01:59.216Z,102224.52
2017-07-15T04:04:27.129Z,102219.14
2017-07-15T04:06:55.058Z,102227.20
2017-07-15T04:09:22.977Z,102227.67
2017-07-15T04:11:50.933Z,102225.86
2017-07-15T04:14:18.855Z,102226.33
2017-07-15T04:16:46.792Z,102222.73
2017-07-15T04:19:14.710Z,102227.67
2017-07-15T04:21:42.650Z,102236.64
2017-07-15T04:24:10.645Z,102231.78
2017-07-15T04:26:38.617Z,102235.30
2017-07-15T04:29:06.542Z,102230.44
2017-07-15T04:31:34.481Z,102229.49
2017-07-15T04:34:02.393Z,102225.50
2017-07-15T04:36:30.369Z,102232.69
2017-07-15T04:38:58.287Z,102231.34
2017-07-15T04:41:26.220Z,102230.00
2017-07-15T04:43:54.129Z,102225.10
2017-07-15T04:46:22.052Z,102232.69
2017-07-15T04:48:49.993Z,102231.85
2017-07-15T04:51:17.905Z,102231.34
2017-07-15T04:53:45.836Z,102224.62
2017-07-15T04:56:13.782Z,102221.51
2017-07-15T04:58:41.719Z,102224.62
2017-07-15T05:01:09.677Z,102226.84
2017-07-15T05:03:37.614Z,102223.72
2017-07-15T05:06:05.535Z,102223.69
2017-07-15T05:08:33.487Z,102229.93
2017-07-15T05:11:01.409Z,102230.40
2017-07-15T05:13:29.349Z,102233.48
2017-07-15T05:15:57.281Z,102241.11
2017-07-15T05:18:25.198Z,102249.60
2017-07-15T05:20:53.122Z,102248.30
2017-07-15T05:23:21.049Z,102245.57
2017-07-15T05:25:49.006Z,102242.38
2017-07-15T05:28:16.921Z,102246.44
2017-07-15T05:30:44.872Z,102248.22
2017-07-15T05:33:12.795Z,102249.97
2017-07-15T05:35:40.713Z,102249.49
2017-07-15T05:38:08.651Z,102250.84
2017-07-15T05:40:36.601Z,102254.39
2017-07-15T05:43:04.541Z,102256.17
2017-07-15T05:45:32.453Z,102253.95
2017-07-15T05:48:00.384Z,102264.23
2017-07-15T05:50:28.324Z,102257.52
2017-07-15T05:52:56.247Z,102257.55
2017-07-15T05:55:24.175Z,102264.27
2017-07-15T05:57:52.110Z,102265.98
2017-07-15T06:00:20.033Z,102269.53
2017-07-15T06:02:47.987Z,102277.16
2017-07-15T06:05:15.921Z,102276.25
2017-07-15T06:07:43.879Z,102282.50
2017-07-15T06:10:11.814Z,102278.03
2017-07-15T06:12:39.762Z,102281.59
2017-07-15T06:15:07.815Z,102290.99
2017-07-15T06:17:35.748Z,102290.99
2017-07-15T06:20:03.733Z,102298.62
2017-07-15T06:22:31.656Z,102297.71
2017-07-15T06:24:59.593Z,102298.18
2017-07-15T06:27:27.535Z,102298.18
2017-07-15T06:29:55.466Z,102304.86
2017-07-15T06:32:23.407Z,102300.83
2017-07-15T06:34:51.337Z,102306.64
2017-07-15T06:37:19.286Z,102308.39
2017-07-15T06:39:47.243Z,102307.58
2017-07-15T06:42:15.409Z,102305.73
2017-07-15T06:44:43.350Z,102303.12
2017-07-15T06:47:11.281Z,102312.09
2017-07-15T06:49:39.206Z,102309.77
2017-07-15T06:52:07.145Z,102307.95
2017-07-15T06:54:35.078Z,102307.91
2017-07-15T06:57:03.009Z,102305.23
2017-07-15T06:59:30.946Z,102305.66
2017-07-15T07:01:58.881Z,102309.59
2017-07-15T07:04:26.847Z,102305.95
2017-07-15T07:06:54.772Z,102307.77
2017-07-15T07:09:22.694Z,102304.69
2017-07-15T07:11:50.625Z,102302.11
2017-07-15T07:14:18.570Z,102311.55
2017-07-15T07:16:46.528Z,102305.73
2017-07-15T07:19:14.440Z,102310.63
2017-07-15T07:21:42.372Z,102302.00
2017-07-15T07:24:10.303Z,102302.69
2017-07-15T07:26:43.262Z,102308.03
2017-07-15T07:29:11.626Z,102307.16
2017-07-15T07:31:39.567Z,102315.73
2017-07-15T07:34:07.528Z,102316.78
2017-07-15T07:36:35.490Z,102310.64
2017-07-15T07:39:03.484Z,102319.44
2017-07-15T07:41:31.418Z,102325.20
2017-07-15T07:43:59.358Z,102327.72
2017-07-15T07:46:27.350Z,102329.28
2017-07-15T07:48:55.390Z,102328.22
2017-07-15T07:51:23.328Z,102331.38
2017-07-15T07:53:51.267Z,102319.14
2017-07-15T07:56:19.213Z,102311.80
2017-07-15T07:58:47.178Z,102304.53
2017-07-15T08:01:15.122Z,102310.59
2017-07-15T08:03:43.151Z,102314.84
2017-07-15T08:06:11.093Z,102316.95
2017-07-15T08:08:39.107Z,102317.35
2017-07-15T08:11:07.122Z,102318.77
2017-07-15T08:13:35.071Z,102320.48
2017-07-15T08:16:03.006Z,102316.44
2017-07-15T08:18:30.948Z,102318.08
2017-07-15T08:20:58.874Z,102334.06
2017-07-15T08:23:26.822Z,102329.11
2017-07-15T08:25:54.740Z,102326.10
2017-07-15T08:28:22.679Z,102331.84
2017-07-15T08:30:50.622Z,102338.48
2017-07-15T08:33:18.566Z,102334.09
2017-07-15T08:35:46.739Z,102328.87
2017-07-15T08:38:14.659Z,102329.78
2017-07-15T08:40:42.580Z,102330.02
2017-07-15T08:43:10.536Z,102333.98
2017-07-15T08:45:38.470Z,102331.11
2017-07-15T08:48:06.849Z,102327.52
2017-07-15T08:50:34.796Z,102330.34
2017-07-15T08:53:02.735Z,102335.73
2017-07-15T08:55:30.691Z,102330.20
2017-07-15T08:57:58.622Z,102329.97
2017-07-15T09:00:26.594Z,102335.75
2017-07-15T09:02:54.550Z,102334.65
2017-07-15T09:05:22.519Z,102334.73
2017-07-15T09:07:50.570Z,102331.02
2017-07-15T09:10:18.520Z,102326.62
2017-07-15T09:12:46.593Z,102329.20
2017-07-15T09:15:14.548Z,102331.34
2017-07-15T09:17:42.619Z,102330.14
2017-07-15T09:20:10.553Z,102326.66
2017-07-15T09:22:38.479Z,102330.18
2017-07-15T09:25:06.443Z,102333.45
2017-07-15T09:27:34.383Z,102340.92
2017-07-15T09:30:02.421Z,102336.16
2017-07-15T09:32:30.370Z,102334.56
2017-07-15T09:34:58.346Z,102342.12
2017-07-15T09:37:26.297Z,102335.79
2017-07-15T09:39:54.241Z,102335.75
2017-07-15T09:42:22.178Z,102325.34
2017-07-15T09:44:50.112Z,102328.25
2017-07-15T09:47:18.049Z,102326.59
2017-07-15T09:49:45.989Z,102330.98
2017-07-15T09:52:13.926Z,102325.93
2017-07-15T09:54:41.865Z,102325.78
2017-07-15T09:57:09.809Z,102326.09
2017-07-15T09:59:37.742Z,102324.75
2017-07-15T10:02:05.686Z,102329.15
2017-07-15T10:04:33.643Z,102329.09
2017-07-15T10:07:02.046Z,102322.10
2017-07-15T10:09:29.981Z,102327.37
2017-07-15T10:11:57.929Z,102316.64
2017-07-15T10:14:25.893Z,102320.88
2017-07-15T10:16:53.822Z,102310.98
2017-07-15T10:19:21.757Z,102313.44
2017-07-15T10:21:49.689Z,102305.95
2017-07-15T10:24:17.616Z,102321.38
2017-07-15T10:26:45.570Z,102325.21
2017-07-15T10:29:13.544Z,102317.94
2017-07-15T10:31:41.496Z,102309.07
2017-07-15T10:34:09.437Z,102325.57
2017-07-15T10:36:37.373Z,102320.74
2017-07-15T10:39:05.331Z,102325.69
2017-07-15T10:41:33.269Z,102327.73
2017-07-15T10:44:01.234Z,102331.18
2017-07-15T10:46:29.197Z,102326.83
2017-07-15T10:48:57.167Z,102329.55
2017-07-15T10:51:25.127Z,102323.07
2017-07-15T10:53:53.388Z,102326.95
2017-07-15T10:56:21.371Z,102322.56
2017-07-15T10:58:49.481Z,102326.13
2017-07-15T11:01:17.424Z,102321.86
2017-07-15T11:03:45.374Z,102320.08
2017-07-15T11:06:13.297Z,102316.59
2017-07-15T11:08:41.253Z,102321.17
2017-07-15T11:11:09.185Z,102330.38
2017-07-15T11:13:37.113Z,102325.75
2017-07-15T11:16:05.111Z,102324.93
2017-07-15T11:18:33.055Z,102327.86
2017-07-15T11:21:00.998Z,102334.16
2017-07-15T11:23:28.929Z,102332.77
2017-07-15T11:25:56.874Z,102331.28
2017-07-15T11:28:24.863Z,102327.84
2017-07-15T11:30:52.798Z,102328.52
2017-07-15T11:33:20.746Z,102332.08
2017-07-15T11:35:48.730Z,102328.05
2017-07-15T11:38:16.667Z,102334.18
2017-07-15T11:40:44.643Z,102332.24
2017-07-15T11:43:12.600Z,102329.44
2017-07-15T11:45:40.520Z,102331.02
2017-07-15T11:48:08.446Z,102331.41
2017-07-15T11:50:36.386Z,102334.61
2017-07-15T11:53:04.354Z,102338.50
2017-07-15T11:55:32.938Z,102331.41
2017-07-15T11:58:00.886Z,102335.69
2017-07-15T12:00:28.822Z,102338.38
2017-07-15T12:02:56.798Z,102342.34
2017-07-15T12:05:24.757Z,102327.61
2017-07-15T12:07:52.685Z,102333.59
2017-07-15T12:10:20.613Z,102337.23
2017-07-15T12:12:48.547Z,102337.52
2017-07-15T12:15:16.458Z,102335.45
2017-07-15T12:17:44.413Z,102336.48
2017-07-15T12:20:12.362Z,102333.43
2017-07-15T12:22:40.332Z,102331.09
2017-07-15T12:25:08.291Z,102326.62
2017-07-15T12:27:36.228Z,102321.80
2017-07-15T12:30:04.196Z,102319.62
2017-07-15T12:32:32.134Z,102327.66
2017-07-15T12:35:00.869Z,102332.71
2017-07-15T12:37:28.796Z,102331.56
2017-07-15T12:39:56.725Z,102328.00
2017-07-15T12:42:24.653Z,102328.00
2017-07-15T12:44:52.607Z,102335.58
2017-07-15T12:47:20.592Z,102327.73
2017-07-15T12:49:48.528Z,102324.26
2017-07-15T12:52:16.462Z,102327.38
2017-07-15T12:54:46.960Z,102321.02
2017-07-15T12:57:14.973Z,102324.50
2017-07-15T12:59:42.946Z,102327.03
2017-07-15T13:02:10.912Z,102329.44
2017-07-15T13:04:38.844Z,102330.08
2017-07-15T13:07:06.777Z,102334.89
2017-07-15T13:09:34.716Z,102325.70
2017-07-15T13:12:02.691Z,102318.84
2017-07-15T13:14:30.624Z,102315.11
2017-07-15T13:16:58.573Z,102312.73
2017-07-15T13:19:26.518Z,102311.07
2017-07-15T13:21:54.459Z,102312.17
2017-07-15T13:24:22.409Z,102319.26
2017-07-15T13:26:50.366Z,102322.45
2017-07-15T13:29:18.963Z,102322.94
2017-07-15T13:31:46.898Z,102327.66
2017-07-15T13:34:14.830Z,102325.68
2017-07-15T13:36:42.784Z,102324.25
2017-07-15T13:39:10.729Z,102328.81
2017-07-15T13:41:38.673Z,102326.44
2017-07-15T13:44:06.603Z,102327.90
2017-07-15T13:46:34.554Z,102320.45
2017-07-15T13:49:02.521Z,102327.46
2017-07-15T13:51:30.445Z,102316.50
2017-07-15T13:53:58.394Z,102318.08
2017-07-15T13:56:26.321Z,102318.39
2017-07-15T13:58:54.257Z,102318.08
2017-07-15T14:01:22.236Z,102318.31
2017-07-15T14:03:51.404Z,102321.68
2017-07-15T14:06:19.510Z,102321.48
2017-07-15T14:08:47.549Z,102318.13
2017-07-15T14:11:15.520Z,102317.69
2017-07-15T14:13:43.511Z,102317.13
2017-07-15T14:16:11.442Z,102313.25
2017-07-15T14:18:39.374Z,102317.78
2017-07-15T14:21:08.656Z,102318.34
2017-07-15T14:23:36.749Z,102310.05
2017-07-15T14:26:04.684Z,102315.44
2017-07-15T14:28:32.634Z,102318.13
2017-07-15T14:31:08.874Z,102310.65
2017-07-15T14:33:36.818Z,102312.50
2017-07-15T14:36:06.751Z,102316.94
2017-07-15T14:38:34.730Z,102315.55
2017-07-15T14:41:02.663Z,102309.95
2017-07-15T14:43:32.565Z,102314.68
2017-07-15T14:46:00.500Z,102308.52
2017-07-15T14:48:28.437Z,102305.06
2017-07-15T14:50:56.429Z,102305.39
2017-07-15T14:53:24.369Z,102302.73
2017-07-15T14:55:52.313Z,102302.18
2017-07-15T14:58:20.257Z,102302.07
2017-07-15T15:00:48.241Z,102303.26
2017-07-15T15:03:16.234Z,102295.91
2017-07-15T15:05:44.210Z,102293.52
2017-07-15T15:08:12.150Z,102293.44
2017-07-15T15:10:40.142Z,102294.56
2017-07-15T15:13:08.053Z,102291.74
2017-07-15T15:15:35.980Z,102292.05
2017-07-15T15:18:03.916Z,102284.90
2017-07-15T15:20:31.856Z,102281.20
2017-07-15T15:22:59.801Z,102279.88
2017-07-15T15:25:27.729Z,102293.00
2017-07-15T15:27:55.674Z,102297.44
2017-07-15T15:30:23.606Z,102287.52
2017-07-15T15:32:51.538Z,102285.65
2017-07-15T15:35:19.486Z,102290.39
2017-07-15T15:37:47.418Z,102296.38
2017-07-15T15:40:15.346Z,102287.47
2017-07-15T15:42:43.499Z,102281.02
2017-07-15T15:45:11.430Z,102270.48
2017-07-15T15:47:39.389Z,102273.36
2017-07-15T15:50:07.321Z,102269.45
2017-07-15T15:52:35.289Z,102264.97
2017-07-15T15:55:03.219Z,102260.54
2017-07-15T15:57:31.153Z,102256.16
2017-07-15T15:59:59.120Z,102251.05
2017-07-15T16:02:27.044Z,102248.94
2017-07-15T16:04:55.018Z,102246.51
2017-07-15T16:07:22.946Z,102241.91
2017-07-15T16:09:50.879Z,102241.09
2017-07-15T16:25:05.898Z,102232.89
2017-07-15T16:27:33.833Z,102239.71
2017-07-15T16:30:01.757Z,102240.30
2017-07-15T16:32:29.711Z,102227.48
2017-07-15T16:34:57.660Z,102230.05
2017-07-15T16:37:26.003Z,102228.74
2017-07-15T16:39:53.946Z,102223.30
2017-07-15T16:42:21.892Z,102216.31
2017-07-15T16:44:49.828Z,102212.66
2017-07-15T16:47:18.071Z,102216.02
2017-07-15T16:49:46.058Z,102209.80
2017-07-15T16:52:13.985Z,102211.66
2017-07-15T16:54:41.928Z,102221.91
2017-07-15T16:57:09.860Z,102226.00
2017-07-15T16:59:37.800Z,102222.52
2017-07-15T17:02:05.763Z,102230.00
2017-07-15T17:04:33.685Z,102227.26
2017-07-15T17:07:02.227Z,102232.03
2017-07-15T17:09:30.146Z,102231.98
2017-07-15T17:11:58.073Z,102232.20
2017-07-15T17:14:26.058Z,102234.33
2017-07-15T17:16:54.017Z,102226.95
2017-07-15T17:19:21.963Z,102225.52
2017-07-15T17:21:49.895Z,102235.23
2017-07-15T17:24:17.829Z,102233.58
2017-07-15T17:26:45.776Z,102237.77
2017-07-15T17:29:13.712Z,102233.87
2017-07-15T17:31:41.657Z,102233.34
2017-07-15T17:34:09.595Z,102239.30
2017-07-15T17:36:37.536Z,102237.87
2017-07-15T17:39:05.486Z,102241.47
2017-07-15T17:41:34.379Z,102243.25
2017-07-15T17:44:02.343Z,102248.69
2017-07-15T17:46:30.576Z,102252.45
2017-07-15T17:48:59.151Z,102251.55
2017-07-15T17:51:28.250Z,102239.42
2017-07-15T17:53:56.939Z,102236.81
2017-07-15T17:56:26.346Z,102242.48
2017-07-15T17:58:55.248Z,102244.83
2017-07-15T18:01:23.725Z,102246.09
2017-07-15T18:03:52.696Z,102250.03
2017-07-15T18:06:20.678Z,102245.50
2017-07-15T18:08:48.610Z,102249.94
2017-07-15T18:11:16.535Z,102248.83
2017-07-15T18:13:44.471Z,102253.10
2017-07-15T18:16:12.413Z,102262.73
2017-07-15T18:18:40.350Z,102254.77
2017-07-15T18:21:08.283Z,102262.09
2017-07-15T18:23:36.251Z,102258.93
2017-07-15T18:26:04.181Z,102262.70
2017-07-15T18:28:32.137Z,102267.47
2017-07-15T18:31:00.066Z,102260.32
2017-07-15T18:33:28.007Z,102263.77
2017-07-15T18:35:55.940Z,102265.81
2017-07-15T18:38:23.877Z,102271.48
2017-07-15T18:40:51.868Z,102270.19
2017-07-15T18:43:19.804Z,102269.63
2017-07-15T18:45:47.747Z,102266.75
2017-07-15T18:48:15.685Z,102272.28
2017-07-15T18:50:43.627Z,102269.05
2017-07-15T18:53:11.583Z,102274.52
2017-07-15T18:55:39.541Z,102272.73
2017-07-15T18:58:07.486Z,102278.66
2017-07-15T19:00:35.426Z,102272.17
2017-07-15T19:03:03.349Z,102273.56
2017-07-15T19:05:31.297Z,102279.95
2017-07-15T19:07:59.237Z,102288.34
2017-07-15T19:10:27.162Z,102290.00
2017-07-15T19:12:55.108Z,102293.70
2017-07-15T19:15:23.049Z,102292.74
2017-07-15T19:17:50.978Z,102297.48
2017-07-15T19:20:18.910Z,102292.48
2017-07-15T19:22:47.369Z,102292.49
2017-07-15T19:25:15.317Z,102291.63
2017-07-15T19:27:43.350Z,102297.81
2017-07-15T19:30:11.290Z,102300.90
2017-07-15T19:32:39.224Z,102302.16
2017-07-15T19:35:07.163Z,102306.19
2017-07-15T19:37:35.185Z,102309.20
2017-07-15T19:40:03.111Z,102311.92
2017-07-15T19:42:31.046Z,102312.17
2017-07-15T19:44:59.418Z,102306.83
2017-07-15T19:47:27.390Z,102306.78
2017-07-15T19:49:55.326Z,102313.73
2017-07-15T19:52:23.282Z,102318.08
2017-07-15T19:54:51.205Z,102314.72
2017-07-15T19:57:19.177Z,102324.19
2017-07-15T19:59:47.539Z,102324.48
2017-07-15T20:02:15.474Z,102320.95
2017-07-15T20:04:43.443Z,102318.70
2017-07-15T20:07:11.411Z,102320.77
2017-07-15T20:09:39.354Z,102326.59
2017-07-15T20:12:07.438Z,102328.53
2017-07-15T20:14:35.349Z,102328.05
2017-07-15T20:17:03.282Z,102319.22
2017-07-15T20:19:31.318Z,102328.37
2017-07-15T20:21:59.282Z,102335.89
2017-07-15T20:24:27.241Z,102330.98
2017-07-15T20:26:55.173Z,102330.86
2017-07-15T20:29:23.097Z,102337.67
2017-07-15T20:31:51.033Z,102333.12
2017-07-15T20:34:18.972Z,102332.06
2017-07-15T20:36:53.012Z,102329.45
2017-07-15T20:39:20.981Z,102332.78
2017-07-15T20:41:48.964Z,102336.66
2017-07-15T20:44:16.978Z,102339.00
2017-07-15T20:46:44.932Z,102331.52
2017-07-15T20:49:12.891Z,102335.75
2017-07-15T20:51:40.889Z,102338.87
2017-07-15T20:54:10.027Z,102334.36
2017-07-15T20:56:37.994Z,102329.89
2017-07-15T20:59:05.949Z,102334.87
2017-07-15T21:01:33.945Z,102329.97
2017-07-15T21:04:02.006Z,102326.02
2017-07-15T21:06:29.946Z,102325.58
2017-07-15T21:08:57.899Z,102328.78
2017-07-15T21:11:26.009Z,102323.48
2017-07-15T21:13:53.969Z,102327.64
2017-07-15T21:16:21.955Z,102325.94
2017-07-15T21:18:49.892Z,102321.06
2017-07-15T21:21:17.866Z,102316.67
2017-07-15T21:23:45.810Z,102316.75
2017-07-15T21:26:13.749Z,102314.58
2017-07-15T21:28:41.752Z,102316.01
2017-07-15T21:31:09.728Z,102317.87
2017-07-15T21:33:37.671Z,102314.36
2017-07-15T21:36:05.603Z,102310.75
2017-07-15T21:38:33.573Z,102315.34
2017-07-15T21:41:01.529Z,102311.90
2017-07-15T21:43:29.494Z,102309.77
2017-07-15T21:45:59.869Z,102307.47
2017-07-15T21:48:28.763Z,102307.03
2017-07-15T21:50:56.836Z,102305.64
2017-07-15T21:53:24.915Z,102316.85
2017-07-15T21:55:53.199Z,102311.07
2017-07-15T21:58:21.489Z,102311.59
2017-07-15T22:00:49.767Z,102307.98
2017-07-15T22:03:17.874Z,102306.28
2017-07-15T22:05:52.980Z,102304.06
2017-07-15T22:08:21.133Z,102305.89
2017-07-15T22:10:49.186Z,102304.14
2017-07-15T22:13:17.387Z,102310.44
2017-07-15T22:15:45.435Z,102319.47
2017-07-15T22:18:13.466Z,102312.81
2017-07-15T22:20:41.507Z,102309.21
2017-07-15T22:23:09.587Z,102313.69
2017-07-15T22:25:37.767Z,102306.99
2017-07-15T22:28:05.829Z,102309.33
2017-07-15T22:30:33.905Z,102305.30
2017-07-15T22:33:01.956Z,102306.59
2017-07-15T22:35:30.127Z,102309.37
2017-07-15T22:37:58.393Z,102306.80
2017-07-15T22:40:26.454Z,102315.34
2017-07-15T22:42:54.609Z,102313.12
2017-07-15T22:45:22.664Z,102318.05
2017-07-15T22:47:50.878Z,102308.63
2017-07-15T22:50:19.466Z,102314.95
2017-07-15T22:52:47.848Z,102304.70
2017-07-15T22:55:15.902Z,102302.48
2017-07-15T22:57:43.957Z,102301.62
2017-07-15T23:00:12.023Z,102299.88
2017-07-15T23:02:40.068Z,102299.00
2017-07-15T23:05:08.110Z,102302.17
2017-07-15T23:07:36.151Z,102304.03
2017-07-15T23:10:04.224Z,102312.11
2017-07-15T23:12:32.406Z,102307.63
2017-07-15T23:15:00.504Z,102306.72
2017-07-15T23:17:28.550Z,102319.70
2017-07-15T23:19:56.599Z,102320.66
2017-07-15T23:22:24.758Z,102320.66
2017-07-15T23:24:52.821Z,102319.30
2017-07-15T23:27:20.855Z,102317.56
2017-07-15T23:29:48.902Z,102318.91
2017-07-15T23:32:17.121Z,102314.44
2017-07-15T23:34:45.145Z,102311.31
2017-07-15T23:37:13.181Z,102314.91
2017-07-15T23:39:41.238Z,102306.41
2017-07-15T23:42:09.303Z,102310.08
2017-07-15T23:44:37.367Z,102311.43
2017-07-15T23:47:05.520Z,102307.79
2017-07-15T23:49:33.569Z,102309.65
2017-07-15T23:52:01.610Z,102311.50
2017-07-15T23:54:29.671Z,102311.98
2017-07-15T23:56:57.742Z,102303.47
2017-07-15T23:59:25.783Z,102296.30
